createdAt,value
2023-11-28T00:01:46.341Z,6.40
2023-11-28T00:04:50.588Z,6.30
2023-11-28T00:07:52.434Z,6.30
2023-11-28T00:10:54.512Z,6.30
2023-11-28T00:13:56.446Z,6.30
2023-11-28T00:16:58.305Z,6.30
2023-11-28T00:20:00.139Z,6.30
2023-11-28T00:23:01.964Z,6.30
2023-11-28T00:26:03.946Z,6.30
2023-11-28T00:29:05.759Z,6.30
2023-11-28T00:32:08.157Z,6.30
2023-11-28T00:35:10.162Z,6.30
2023-11-28T00:38:11.917Z,6.40
2023-11-28T00:41:13.724Z,6.30
2023-11-28T00:44:16.483Z,6.30
2023-11-28T00:47:18.641Z,6.30
2023-11-28T00:50:20.458Z,6.30
2023-11-28T00:53:22.223Z,6.20
2023-11-28T00:56:24.083Z,6.20
2023-11-28T00:59:25.836Z,6.20
2023-11-28T01:02:27.659Z,6.20
2023-11-28T01:05:29.576Z,6.20
2023-11-28T01:08:31.298Z,6.20
2023-11-28T01:11:33.049Z,6.10
2023-11-28T01:14:34.898Z,6.10
2023-11-28T01:17:36.725Z,6.10
2023-11-28T01:20:38.513Z,6.10
2023-11-28T01:23:40.263Z,6.10
2023-11-28T01:26:41.971Z,6.10
2023-11-28T01:29:43.722Z,6.10
2023-11-28T01:32:46.178Z,6.10
2023-11-28T01:35:47.963Z,6.10
2023-11-28T01:38:49.706Z,6.10
2023-11-28T01:41:51.602Z,6.10
2023-11-28T01:44:53.340Z,6.10
2023-11-28T01:47:55.171Z,6.10
2023-11-28T01:50:56.964Z,6.10
2023-11-28T01:54:00.208Z,6.10
2023-11-28T01:57:02.209Z,6.00
2023-11-28T02:00:05.188Z,6.10
2023-11-28T02:03:07.095Z,6.00
2023-11-28T02:06:10.006Z,6.00
2023-11-28T02:09:11.780Z,6.00
2023-11-28T02:12:13.508Z,6.00
2023-11-28T02:15:15.301Z,6.00
2023-11-28T02:18:17.050Z,5.90
2023-11-28T02:21:18.792Z,5.90
2023-11-28T02:24:20.586Z,6.00
2023-11-28T02:27:22.369Z,6.00
2023-11-28T02:30:24.224Z,6.00
2023-11-28T02:33:26.178Z,6.00
2023-11-28T02:36:29.515Z,6.00
2023-11-28T02:39:31.290Z,6.00
2023-11-28T02:42:33.002Z,6.00
2023-11-28T02:45:34.823Z,6.00
2023-11-28T02:48:36.637Z,5.90
2023-11-28T02:51:38.370Z,5.90
2023-11-28T02:54:41.881Z,5.90
2023-11-28T02:57:43.674Z,5.80
2023-11-28T03:00:45.425Z,5.90
2023-11-28T03:03:47.261Z,5.80
2023-11-28T03:06:49.406Z,5.80
2023-11-28T03:09:51.193Z,5.70
2023-11-28T03:12:52.918Z,5.70
2023-11-28T03:15:54.757Z,5.60
2023-11-28T03:18:56.476Z,5.60
2023-11-28T03:21:58.199Z,5.60
2023-11-28T03:25:09.714Z,5.60
2023-11-28T03:28:11.454Z,5.50
2023-11-28T03:31:13.155Z,5.40
2023-11-28T03:34:14.887Z,5.40
2023-11-28T03:37:16.600Z,5.30
2023-11-28T03:40:18.376Z,5.30
2023-11-28T03:43:20.111Z,5.20
2023-11-28T03:46:21.883Z,5.20
2023-11-28T03:49:23.630Z,5.10
2023-11-28T03:52:25.379Z,5.10
2023-11-28T03:55:27.087Z,5.00
2023-11-28T03:58:28.875Z,5.00
2023-11-28T04:01:30.769Z,4.90
2023-11-28T04:04:32.606Z,4.90
2023-11-28T04:07:34.703Z,4.90
2023-11-28T04:10:36.533Z,4.80
2023-11-28T04:13:38.338Z,4.80
2023-11-28T04:16:40.144Z,4.70
2023-11-28T04:19:41.958Z,4.70
2023-11-28T04:22:43.722Z,4.70
2023-11-28T04:25:45.476Z,4.70
2023-11-28T04:28:47.289Z,4.70
2023-11-28T04:31:49.188Z,4.60
2023-11-28T04:34:51.015Z,4.60
2023-11-28T04:37:52.788Z,4.60
2023-11-28T04:40:54.582Z,4.60
2023-11-28T04:43:56.425Z,4.60
2023-11-28T04:46:58.250Z,4.50
2023-11-28T04:50:00.028Z,4.50
2023-11-28T04:53:01.909Z,4.50
2023-11-28T04:56:05.535Z,4.50
2023-11-28T04:59:07.512Z,4.50
2023-11-28T05:02:09.403Z,4.50
2023-11-28T05:05:11.317Z,4.50
2023-11-28T05:08:13.500Z,4.50
2023-11-28T05:11:15.382Z,4.40
2023-11-28T05:14:17.210Z,4.40
2023-11-28T05:17:19.371Z,4.40
2023-11-28T05:20:21.237Z,4.40
2023-11-28T05:23:23.564Z,4.40
2023-11-28T05:26:25.331Z,4.30
2023-11-28T05:29:27.661Z,4.40
2023-11-28T05:32:29.472Z,4.30
2023-11-28T05:35:31.539Z,4.30
2023-11-28T05:38:33.970Z,4.40
2023-11-28T05:41:35.943Z,4.30
2023-11-28T05:44:39.860Z,4.30
2023-11-28T05:47:41.937Z,4.30
2023-11-28T05:50:43.685Z,4.20
2023-11-28T05:53:45.452Z,4.20
2023-11-28T05:56:47.718Z,4.20
2023-11-28T05:59:51.600Z,4.20
2023-11-28T06:02:53.331Z,4.20
2023-11-28T06:05:55.128Z,4.20
2023-11-28T06:08:56.882Z,4.20
2023-11-28T06:12:01.438Z,4.10
2023-11-28T06:15:07.605Z,4.10
2023-11-28T06:18:11.210Z,4.00
2023-11-28T06:21:12.974Z,4.10
2023-11-28T06:24:18.011Z,4.10
2023-11-28T06:27:22.315Z,4.00
2023-11-28T06:30:28.147Z,4.00
2023-11-28T06:33:30.088Z,4.00
2023-11-28T06:36:31.799Z,4.00
2023-11-28T06:39:34.921Z,3.90
2023-11-28T06:42:36.707Z,3.90
2023-11-28T06:45:39.687Z,3.80
2023-11-28T06:48:41.646Z,3.80
2023-11-28T06:51:43.407Z,3.80
2023-11-28T06:54:45.210Z,3.80
2023-11-28T06:57:47.081Z,3.70
2023-11-28T07:00:51.430Z,3.70
2023-11-28T07:03:54.867Z,3.70
2023-11-28T07:06:56.638Z,3.70
2023-11-28T07:09:58.427Z,3.70
2023-11-28T07:13:00.872Z,3.70
2023-11-28T07:16:02.660Z,3.70
2023-11-28T07:19:04.504Z,3.70
2023-11-28T07:22:06.210Z,3.60
2023-11-28T07:25:10.247Z,3.60
2023-11-28T07:28:12.084Z,3.60
2023-11-28T07:31:17.489Z,3.60
2023-11-28T07:34:19.695Z,3.60
2023-11-28T07:37:21.418Z,3.60
2023-11-28T07:40:25.410Z,3.50
2023-11-28T07:43:27.233Z,3.50
2023-11-28T07:46:29.209Z,3.40
2023-11-28T07:49:30.929Z,3.40
2023-11-28T07:52:33.600Z,3.40
2023-11-28T07:55:37.008Z,3.30
2023-11-28T07:58:39.832Z,3.40
2023-11-28T08:01:41.726Z,3.30
2023-11-28T08:04:43.889Z,3.40
2023-11-28T08:07:45.814Z,3.30
2023-11-28T08:10:48.299Z,3.40
2023-11-28T08:13:51.251Z,3.40
2023-11-28T08:16:53.176Z,3.40
2023-11-28T08:19:55.115Z,3.40
2023-11-28T08:22:56.884Z,3.40
2023-11-28T08:25:59.683Z,3.40
2023-11-28T08:29:01.505Z,3.50
2023-11-28T08:32:03.629Z,3.60
2023-11-28T08:35:06.194Z,3.70
2023-11-28T08:38:07.975Z,3.80
2023-11-28T08:41:11.340Z,3.80
2023-11-28T08:44:14.368Z,3.70
2023-11-28T08:47:16.451Z,3.60
2023-11-28T08:50:18.600Z,3.60
2023-11-28T08:53:20.560Z,3.60
2023-11-28T08:56:24.369Z,3.70
2023-11-28T08:59:26.189Z,3.80
2023-11-28T09:02:28.394Z,3.90
2023-11-28T09:05:30.248Z,3.90
2023-11-28T09:08:32.114Z,4.00
2023-11-28T09:11:33.894Z,4.20
2023-11-28T09:14:46.952Z,4.30
2023-11-28T09:17:53.739Z,4.30
2023-11-28T09:20:55.458Z,4.30
2023-11-28T09:23:57.170Z,4.40
2023-11-28T09:27:01.876Z,4.40
2023-11-28T09:30:03.931Z,4.50
2023-11-28T09:33:06.483Z,4.60
2023-11-28T09:36:09.570Z,4.80
2023-11-28T09:39:11.762Z,4.80
2023-11-28T09:42:13.633Z,5.00
2023-11-28T09:45:15.411Z,5.10
2023-11-28T09:48:18.529Z,5.20
2023-11-28T09:51:21.296Z,5.40
2023-11-28T09:54:23.626Z,5.60
2023-11-28T09:57:26.617Z,5.90
2023-11-28T10:00:28.354Z,6.10
2023-11-28T10:03:30.234Z,6.60
2023-11-28T10:06:32.026Z,7.10
2023-11-28T10:09:34.468Z,7.40
2023-11-28T10:12:38.109Z,7.50
2023-11-28T10:15:42.201Z,7.50
2023-11-28T10:18:49.002Z,7.80
2023-11-28T10:21:50.800Z,8.20
2023-11-28T10:24:56.675Z,8.50
2023-11-28T10:28:01.426Z,8.90
2023-11-28T10:31:07.433Z,9.30
2023-11-28T10:34:12.824Z,9.30
2023-11-28T10:37:14.546Z,9.30
2023-11-28T10:40:18.425Z,9.50
2023-11-28T10:43:20.398Z,9.60
2023-11-28T10:46:22.125Z,9.70
2023-11-28T10:49:23.917Z,9.70
2023-11-28T10:52:27.273Z,9.90
2023-11-28T10:55:29.325Z,10.10
2023-11-28T10:58:31.071Z,9.80
2023-11-28T11:01:32.860Z,9.90
2023-11-28T11:04:34.847Z,10.10
2023-11-28T11:07:36.643Z,10.30
2023-11-28T11:10:41.434Z,10.40
2023-11-28T11:13:52.871Z,10.50
2023-11-28T11:16:57.585Z,10.50
2023-11-28T11:19:59.726Z,10.70
2023-11-28T11:23:02.489Z,10.70
2023-11-28T11:26:04.821Z,10.50
2023-11-28T11:29:20.909Z,10.60
2023-11-28T11:32:23.823Z,10.00
2023-11-28T11:35:27.203Z,9.40
2023-11-28T11:38:31.851Z,8.90
2023-11-28T11:41:38.563Z,8.50
2023-11-28T11:44:48.121Z,8.20
2023-11-28T11:47:50.064Z,8.00
2023-11-28T11:50:53.474Z,7.80
2023-11-28T11:53:55.325Z,7.50
2023-11-28T11:56:57.384Z,7.40
2023-11-28T11:59:59.932Z,7.40
2023-11-28T12:03:01.660Z,7.30
2023-11-28T12:06:03.659Z,7.30
2023-11-28T12:09:05.837Z,7.20
2023-11-28T12:12:09.959Z,7.10
2023-11-28T12:15:13.105Z,7.00
2023-11-28T12:18:15.000Z,6.90
2023-11-28T12:21:16.829Z,6.90
2023-11-28T12:24:19.867Z,6.90
2023-11-28T12:27:21.626Z,7.00
2023-11-28T12:30:23.577Z,7.10
2023-11-28T12:33:25.728Z,7.10
2023-11-28T12:36:30.745Z,7.10
2023-11-28T12:39:32.455Z,7.00
2023-11-28T12:42:34.208Z,7.00
2023-11-28T12:45:36.860Z,7.00
2023-11-28T12:48:38.542Z,6.90
2023-11-28T12:51:40.315Z,6.90
2023-11-28T12:54:42.290Z,6.80
2023-11-28T12:57:44.055Z,6.80
2023-11-28T13:00:46.398Z,6.80
2023-11-28T13:03:49.264Z,6.70
2023-11-28T13:07:04.696Z,6.70
2023-11-28T13:10:14.824Z,6.60
2023-11-28T13:13:18.594Z,6.50
2023-11-28T13:16:20.571Z,6.50
2023-11-28T13:19:22.321Z,6.60
2023-11-28T13:22:24.066Z,6.60
2023-11-28T13:25:25.963Z,6.70
2023-11-28T13:28:29.053Z,6.70
2023-11-28T13:31:31.012Z,6.90
2023-11-28T13:34:32.812Z,7.00
2023-11-28T13:37:34.543Z,7.10
2023-11-28T13:40:36.251Z,7.20
2023-11-28T13:43:40.021Z,7.30
2023-11-28T13:46:41.808Z,7.40
2023-11-28T13:49:43.561Z,7.40
2023-11-28T13:52:45.358Z,7.50
2023-11-28T13:55:47.514Z,7.50
2023-11-28T13:58:49.346Z,7.60
2023-11-28T14:01:51.160Z,7.60
2023-11-28T14:04:54.248Z,7.60
2023-11-28T14:07:56.084Z,7.70
2023-11-28T14:10:57.910Z,7.70
2023-11-28T14:14:00.784Z,7.60
2023-11-28T14:17:02.878Z,7.60
2023-11-28T14:20:08.115Z,7.50
2023-11-28T14:23:10.773Z,7.40
2023-11-28T14:26:12.475Z,7.40
2023-11-28T14:29:14.339Z,7.30
2023-11-28T14:32:16.233Z,7.20
2023-11-28T14:35:19.227Z,7.10
2023-11-28T14:38:21.388Z,7.00
2023-11-28T14:41:23.532Z,7.00
2023-11-28T14:44:25.542Z,7.00
2023-11-28T14:47:27.443Z,7.00
2023-11-28T14:50:31.728Z,6.90
2023-11-28T14:53:33.696Z,6.80
2023-11-28T14:56:36.459Z,6.80
2023-11-28T14:59:38.951Z,6.90
2023-11-28T15:02:40.780Z,6.90
2023-11-28T15:05:42.635Z,6.90
2023-11-28T15:08:44.645Z,6.90
2023-11-28T15:11:46.368Z,6.90
2023-11-28T15:14:48.214Z,6.90
2023-11-28T15:17:50.064Z,6.80
2023-11-28T15:20:52.350Z,6.80
2023-11-28T15:23:54.458Z,6.70
2023-11-28T15:26:56.243Z,6.60
2023-11-28T15:29:59.928Z,6.60
2023-11-28T15:33:01.850Z,6.50
2023-11-28T15:36:04.582Z,6.40
2023-11-28T15:39:14.173Z,6.40
2023-11-28T15:42:16.181Z,6.40
2023-11-28T15:45:18.252Z,6.40
2023-11-28T15:48:20.202Z,6.50
2023-11-28T15:51:34.637Z,6.40
2023-11-28T15:54:42.022Z,6.50
2023-11-28T15:57:43.867Z,6.50
2023-11-28T16:00:45.575Z,6.40
2023-11-28T16:03:47.626Z,6.30
2023-11-28T16:06:49.669Z,6.20
2023-11-28T16:09:51.391Z,6.10
2023-11-28T16:12:53.458Z,6.00
2023-11-28T16:15:55.627Z,5.90
2023-11-28T16:18:57.552Z,5.80
2023-11-28T16:22:00.113Z,5.70
2023-11-28T16:25:03.550Z,5.70
2023-11-28T16:28:05.296Z,5.60
2023-11-28T16:31:07.058Z,5.50
2023-11-28T16:34:09.067Z,5.40
2023-11-28T16:37:10.938Z,5.30
2023-11-28T16:40:12.807Z,5.20
2023-11-28T16:43:14.526Z,5.20
2023-11-28T16:46:16.567Z,5.10
2023-11-28T16:49:18.336Z,5.10
2023-11-28T16:52:20.077Z,5.10
2023-11-28T16:55:22.691Z,5.10
2023-11-28T16:58:24.412Z,5.00
2023-11-28T17:01:26.234Z,5.00
2023-11-28T17:04:28.654Z,4.90
2023-11-28T17:07:30.555Z,4.90
2023-11-28T17:10:36.258Z,4.90
2023-11-28T17:13:40.205Z,4.80
2023-11-28T17:16:42.454Z,4.70
2023-11-28T17:19:44.905Z,4.70
2023-11-28T17:22:46.686Z,4.70
2023-11-28T17:25:48.607Z,4.60
2023-11-28T17:28:50.329Z,4.50
2023-11-28T17:31:54.961Z,4.40
2023-11-28T17:34:57.024Z,4.40
2023-11-28T17:37:58.826Z,4.40
2023-11-28T17:41:00.684Z,4.30
2023-11-28T17:44:02.607Z,4.30
2023-11-28T17:47:04.641Z,4.20
2023-11-28T17:50:07.007Z,4.10
2023-11-28T17:53:08.896Z,4.00
2023-11-28T17:56:11.357Z,4.00
2023-11-28T17:59:14.462Z,3.90
2023-11-28T18:02:16.555Z,3.80
2023-11-28T18:05:19.415Z,3.70
2023-11-28T18:08:21.270Z,3.60
2023-11-28T18:11:23.041Z,3.50
2023-11-28T18:14:25.023Z,3.40
2023-11-28T18:17:26.904Z,3.40
2023-11-28T18:20:28.777Z,3.30
2023-11-28T18:23:33.207Z,3.30
2023-11-28T18:26:35.725Z,3.20
2023-11-28T18:29:37.443Z,3.00
2023-11-28T18:32:39.441Z,2.90
2023-11-28T18:35:41.743Z,2.90
2023-11-28T18:38:50.681Z,2.70
2023-11-28T18:41:56.865Z,2.70
2023-11-28T18:44:59.272Z,2.60
2023-11-28T18:48:01.071Z,2.60
2023-11-28T18:51:04.051Z,2.60
2023-11-28T18:54:06.080Z,2.60
2023-11-28T18:57:07.847Z,2.60
2023-11-28T19:00:10.117Z,2.50
2023-11-28T19:03:12.060Z,2.50
2023-11-28T19:06:13.997Z,2.40
2023-11-28T19:09:15.779Z,2.40
2023-11-28T19:12:17.577Z,2.30
2023-11-28T19:15:19.407Z,2.20
2023-11-28T19:18:21.132Z,2.10
2023-11-28T19:21:22.887Z,2.10
2023-11-28T19:24:24.703Z,2.10
2023-11-28T19:27:26.461Z,2.00
2023-11-28T19:30:28.204Z,2.10
2023-11-28T19:33:31.237Z,2.00
2023-11-28T19:36:33.050Z,2.00
2023-11-28T19:39:34.775Z,1.90
2023-11-28T19:42:36.584Z,1.90
2023-11-28T19:45:38.343Z,1.80
2023-11-28T19:48:44.233Z,1.70
2023-11-28T19:51:46.693Z,1.70
2023-11-28T19:54:48.626Z,1.60
2023-11-28T19:57:50.378Z,1.60
2023-11-28T20:00:52.241Z,1.60
2023-11-28T20:03:54.316Z,1.60
2023-11-28T20:06:56.107Z,1.60
2023-11-28T20:09:57.820Z,1.50
2023-11-28T20:13:01.484Z,1.60
2023-11-28T20:16:03.786Z,1.60
2023-11-28T20:19:05.649Z,1.50
2023-11-28T20:22:07.393Z,1.40
2023-11-28T20:25:11.205Z,1.40
2023-11-28T20:28:13.024Z,1.30
2023-11-28T20:31:16.656Z,1.30
2023-11-28T20:34:19.032Z,1.30
2023-11-28T20:37:20.906Z,1.30
2023-11-28T20:40:27.158Z,1.30
2023-11-28T20:43:29.165Z,1.30
2023-11-28T20:46:31.348Z,1.30
2023-11-28T20:49:33.078Z,1.20
2023-11-28T20:52:35.664Z,1.20
2023-11-28T20:55:39.947Z,1.20
2023-11-28T20:58:41.912Z,1.20
2023-11-28T21:01:43.912Z,1.20
2023-11-28T21:04:45.956Z,1.20
2023-11-28T21:07:47.769Z,1.20
2023-11-28T21:10:49.738Z,1.20
2023-11-28T21:13:51.804Z,1.20
2023-11-28T21:16:53.576Z,1.20
2023-11-28T21:19:57.684Z,1.20
2023-11-28T21:23:01.350Z,1.30
2023-11-28T21:26:06.501Z,1.40
2023-11-28T21:29:08.260Z,1.50
2023-11-28T21:32:10.031Z,1.50
2023-11-28T21:35:12.102Z,1.50
2023-11-28T21:38:13.856Z,1.40
2023-11-28T21:41:19.405Z,1.40
2023-11-28T21:44:22.260Z,1.40
2023-11-28T21:47:26.280Z,1.50
2023-11-28T21:50:33.119Z,1.40
2023-11-28T21:53:36.624Z,1.40
2023-11-28T21:56:38.887Z,1.40
2023-11-28T21:59:40.808Z,1.30
2023-11-28T22:02:42.568Z,1.20
2023-11-28T22:05:44.783Z,1.20
2023-11-28T22:08:54.139Z,1.20
2023-11-28T22:12:01.543Z,1.20
2023-11-28T22:15:06.090Z,1.20
2023-11-28T22:18:09.813Z,1.20
2023-11-28T22:21:24.093Z,1.20
2023-11-28T22:24:27.606Z,1.40
2023-11-28T22:27:29.309Z,1.60
2023-11-28T22:30:32.046Z,1.60
2023-11-28T22:33:33.822Z,1.60
2023-11-28T22:36:35.577Z,1.70
2023-11-28T22:39:38.108Z,1.70
2023-11-28T22:42:39.862Z,1.70
2023-11-28T22:45:42.814Z,1.70
2023-11-28T22:48:44.663Z,1.60
2023-11-28T22:51:46.610Z,1.60
2023-11-28T22:54:49.899Z,1.50
2023-11-28T22:57:51.677Z,1.50
2023-11-28T23:00:53.428Z,1.40
2023-11-28T23:03:55.269Z,1.50
2023-11-28T23:06:57.050Z,1.50
2023-11-28T23:09:59.495Z,1.50
2023-11-28T23:13:01.227Z,1.40
2023-11-28T23:16:04.843Z,1.40
2023-11-28T23:19:07.003Z,1.40
2023-11-28T23:22:08.913Z,1.40
2023-11-28T23:25:12.908Z,1.40
2023-11-28T23:28:14.613Z,1.50
2023-11-28T23:31:17.196Z,1.40
2023-11-28T23:34:19.117Z,1.50
2023-11-28T23:37:20.881Z,1.50
2023-11-28T23:40:22.788Z,1.50
2023-11-28T23:43:24.793Z,1.50
2023-11-28T23:46:26.535Z,1.50
2023-11-28T23:49:28.421Z,1.50
2023-11-28T23:52:30.174Z,1.50
2023-11-28T23:55:34.368Z,1.40
2023-11-28T23:58:36.148Z,1.50
